Terminal Aerodrome Forecast
Issued by NWS

Home | Current Version | Previous Version | Text Only | Print | Product List | Glossary On
Versions: 1 2 3 4 5 6 7 8 9 10 11 12 13 14 15 16 17
000
FTUS46 KSGX 270500
TAFSNA
TAF
KSNA 270524Z 2706/2806 VRB03KT P6SM BKN060 BKN090
     FM271300 VRB04KT P6SM SCT060
     FM272100 23007KT P6SM FEW060 FEW200
     FM280100 VRB04KT P6SM FEW060 FEW200=

USA.gov is the U.S. government's official web portal to all federal, state and local government web resources and services.